Time;durP1;ratioP1;P1;durP2;ratioP2;P2;SDS_P1;SDS_P2;PMS_P1;PMS_P2;Temp;Humidity;BMP_temperature;BMP_pressure;BME280_temperature;BME280_humidity;BME280_pressure;Samples;Min_cycle;Max_cycle;Signal;HPM_P1;HPM_P2
2022/01/18 00:01:43;;;;;;;7.20;5.57;;;3.70;99.90;;;;;;5009980;28;20225;-71
2022/01/18 00:04:10;;;;;;;8.10;6.72;;;3.60;99.90;;;;;;5008627;28;20964;-71
2022/01/18 00:06:39;;;;;;;6.38;4.90;;;3.60;99.90;;;;;;5009572;28;20206;-71
2022/01/18 00:09:06;;;;;;;6.15;5.25;;;3.60;99.90;;;;;;5009586;28;20552;-72
2022/01/18 00:11:39;;;;;;;10.85;5.95;;;3.60;99.90;;;;;;5012345;28;20230;-72
2022/01/18 00:14:13;;;;;;;6.05;5.13;;;3.60;99.90;;;;;;5012925;28;20318;-72
2022/01/18 00:17:00;;;;;;;7.10;5.75;;;3.60;99.90;;;;;;5012621;28;20281;-72
2022/01/18 00:19:27;;;;;;;7.85;6.45;;;3.60;99.90;;;;;;5013616;28;20199;-72
2022/01/18 00:22:07;;;;;;;7.60;6.10;;;3.50;99.90;;;;;;5013029;28;20230;-72
2022/01/18 00:24:34;;;;;;;7.68;6.35;;;3.40;99.90;;;;;;5013130;28;20218;-72
2022/01/18 00:27:02;;;;;;;9.00;5.45;;;3.50;99.90;;;;;;5013102;28;20209;-72
2022/01/18 00:29:30;;;;;;;6.45;5.35;;;3.50;99.90;;;;;;5012778;28;20202;-71
2022/01/18 00:32:09;;;;;;;7.63;6.38;;;3.50;99.90;;;;;;5012764;28;20779;-71
2022/01/18 00:37:34;;;;;;;9.65;6.30;;;3.60;99.90;;;;;;4769771;22;20238;-76
2022/01/18 00:40:01;;;;;;;6.82;6.05;;;3.50;99.90;;;;;;5013066;28;20256;-76
2022/01/18 00:42:28;;;;;;;9.60;6.78;;;3.60;99.90;;;;;;5012224;28;20235;-77
2022/01/18 00:44:55;;;;;;;7.47;5.78;;;3.60;99.90;;;;;;5012441;28;20789;-76
2022/01/18 00:47:23;;;;;;;7.45;5.75;;;3.60;99.90;;;;;;5012422;28;20574;-77
2022/01/18 00:49:58;;;;;;;8.75;6.18;;;3.60;99.90;;;;;;5013039;28;20571;-76
2022/01/18 00:52:26;;;;;;;8.95;5.68;;;3.60;99.90;;;;;;5011870;28;20229;-74
2022/01/18 00:54:53;;;;;;;6.93;6.22;;;3.60;99.90;;;;;;5013794;28;20222;-75
2022/01/18 00:57:20;;;;;;;9.85;6.68;;;3.60;99.90;;;;;;5013766;28;20579;-76
2022/01/18 00:59:47;;;;;;;8.15;6.15;;;3.60;99.90;;;;;;5013525;28;20202;-75
2022/01/18 01:02:15;;;;;;;7.45;5.40;;;3.50;99.90;;;;;;5013029;28;20199;-76
2022/01/18 01:04:47;;;;;;;7.85;6.20;;;3.60;99.90;;;;;;5013535;28;20233;-75
2022/01/18 01:07:15;;;;;;;12.23;6.20;;;3.60;99.90;;;;;;5013378;28;20666;-76
2022/01/18 01:09:42;;;;;;;9.77;6.05;;;3.60;99.90;;;;;;5013256;28;20236;-75
2022/01/18 01:12:11;;;;;;;9.80;6.63;;;3.60;99.90;;;;;;5013311;28;20229;-74
2022/01/18 01:14:45;;;;;;;9.32;6.65;;;3.60;99.90;;;;;;5013399;28;20225;-76
2022/01/18 01:17:24;;;;;;;8.30;6.75;;;3.60;99.90;;;;;;5012380;28;20241;-75
2022/01/18 01:34:02;;;;;;;9.32;6.90;;;3.80;99.90;;;;;;5012348;28;20298;-76
2022/01/18 01:42:11;;;;;;;9.48;6.90;;;3.90;99.90;;;;;;5012745;28;20198;-76
2022/01/18 01:44:43;;;;;;;9.80;6.95;;;3.90;99.90;;;;;;5013031;28;20658;-75
2022/01/18 01:47:12;;;;;;;13.07;8.85;;;4.00;99.90;;;;;;5012963;28;20205;-76
2022/01/18 01:49:40;;;;;;;9.35;7.80;;;4.00;99.90;;;;;;5012931;28;20617;-77
2022/01/18 01:52:11;;;;;;;11.82;7.68;;;4.00;99.90;;;;;;5012094;28;20632;-76
2022/01/18 01:54:39;;;;;;;11.23;8.60;;;4.00;99.90;;;;;;5012905;28;20652;-77
2022/01/18 01:57:07;;;;;;;14.63;8.55;;;4.00;99.90;;;;;;5012247;28;20218;-77
2022/01/18 01:59:34;;;;;;;12.68;8.20;;;4.00;99.90;;;;;;5012578;28;20214;-76
2022/01/18 02:02:01;;;;;;;9.52;7.60;;;4.00;99.90;;;;;;5012685;28;20207;-77
2022/01/18 02:04:28;;;;;;;10.85;8.05;;;4.00;99.90;;;;;;5011695;28;20226;-77
2022/01/18 02:06:55;;;;;;;9.45;7.85;;;4.00;99.90;;;;;;5012338;28;20594;-77
2022/01/18 02:09:23;;;;;;;11.48;8.43;;;4.00;99.90;;;;;;5012248;28;20209;-77
2022/01/18 02:11:51;;;;;;;12.55;9.00;;;4.00;99.90;;;;;;5012159;28;20218;-77
2022/01/18 02:14:21;;;;;;;12.60;8.50;;;4.10;99.90;;;;;;5011382;28;20253;-77
2022/01/18 02:22:18;;;;;;;10.65;7.55;;;4.10;99.90;;;;;;5011210;28;20193;-76
2022/01/18 02:24:45;;;;;;;12.32;7.10;;;4.10;99.90;;;;;;5012050;28;20274;-77
2022/01/18 02:27:12;;;;;;;9.13;7.53;;;4.00;99.90;;;;;;5011493;28;20555;-77
2022/01/18 02:29:39;;;;;;;10.05;7.15;;;4.10;99.90;;;;;;5012274;28;20233;-77
2022/01/18 02:32:07;;;;;;;12.70;8.30;;;4.10;99.90;;;;;;5011108;28;20265;-77
2022/01/18 02:34:34;;;;;;;11.90;8.50;;;4.00;99.90;;;;;;5010556;28;20233;-77
2022/01/18 02:37:03;;;;;;;11.48;7.80;;;4.00;99.90;;;;;;5011653;28;20221;-77
2022/01/18 02:39:32;;;;;;;9.98;7.55;;;4.00;99.90;;;;;;5011556;28;20206;-76
2022/01/18 02:42:00;;;;;;;11.43;8.02;;;4.00;99.90;;;;;;5011708;28;20612;-77
2022/01/18 02:44:29;;;;;;;12.93;8.70;;;4.00;99.90;;;;;;5010866;28;20226;-77
2022/01/18 02:46:56;;;;;;;14.30;7.80;;;4.00;99.90;;;;;;5011577;28;20213;-77
2022/01/18 02:49:23;;;;;;;9.20;6.78;;;4.00;99.90;;;;;;5011553;28;20202;-76
2022/01/18 02:51:50;;;;;;;9.52;7.97;;;3.90;99.90;;;;;;5016372;28;20225;-77
2022/01/18 02:54:18;;;;;;;10.07;6.68;;;3.90;99.90;;;;;;5019040;28;20728;-75
2022/01/18 02:56:52;;;;;;;11.15;8.88;;;3.90;99.90;;;;;;5011316;28;20206;-77
2022/01/18 02:59:29;;;;;;;11.38;8.10;;;3.90;99.90;;;;;;5011449;28;20216;-77
2022/01/18 03:04:41;;;;;;;9.85;7.57;;;3.90;99.90;;;;;;5011725;28;20364;-76
2022/01/18 03:07:08;;;;;;;11.25;7.43;;;3.90;99.90;;;;;;5011236;28;20209;-76
2022/01/18 03:09:36;;;;;;;8.82;6.70;;;3.90;99.90;;;;;;5011197;28;20202;-75
2022/01/18 03:12:06;;;;;;;9.98;7.32;;;3.80;99.90;;;;;;5010978;28;20214;-75
2022/01/18 03:14:33;;;;;;;11.18;7.65;;;3.80;99.90;;;;;;5010830;28;20237;-74
2022/01/18 03:16:59;;;;;;;11.38;7.63;;;3.80;99.90;;;;;;5011317;28;20205;-76
2022/01/18 03:19:26;;;;;;;14.45;8.18;;;3.90;99.90;;;;;;5011047;28;20202;-77
2022/01/18 03:21:56;;;;;;;9.80;7.95;;;3.80;99.90;;;;;;5011145;28;20207;-76
2022/01/18 03:24:44;;;;;;;9.15;7.18;;;3.90;99.90;;;;;;5010313;28;20230;-77
2022/01/18 03:29:56;;;;;;;12.85;7.35;;;3.80;99.90;;;;;;5011172;28;20288;-75
2022/01/18 03:32:22;;;;;;;9.80;7.78;;;3.80;99.90;;;;;;5010098;28;20614;-75
2022/01/18 03:34:49;;;;;;;9.90;7.25;;;3.70;99.90;;;;;;5011085;28;20226;-75
2022/01/18 03:37:16;;;;;;;10.75;7.30;;;3.70;99.90;;;;;;5014423;28;20214;-76
2022/01/18 03:39:43;;;;;;;9.00;7.55;;;3.70;99.90;;;;;;5011000;28;20210;-76
2022/01/18 03:42:34;;;;;;;9.48;6.53;;;3.70;99.90;;;;;;5010413;28;20206;-77
2022/01/18 03:45:04;;;;;;;11.52;7.32;;;3.70;99.90;;;;;;5011690;28;20229;-77
2022/01/18 03:47:31;;;;;;;9.85;7.70;;;3.70;99.90;;;;;;5016361;28;20204;-76
2022/01/18 03:49:58;;;;;;;8.00;6.60;;;3.70;99.90;;;;;;5016721;28;20201;-75
2022/01/18 03:52:24;;;;;;;11.55;8.23;;;3.70;99.90;;;;;;5016984;28;20244;-76
2022/01/18 03:54:51;;;;;;;10.40;7.68;;;3.70;99.90;;;;;;5016759;28;20222;-76
2022/01/18 03:57:20;;;;;;;14.02;8.60;;;3.70;99.90;;;;;;5015137;28;20242;-75
2022/01/18 03:59:47;;;;;;;11.70;7.90;;;3.70;99.90;;;;;;5015751;28;20202;-78
2022/01/18 04:02:16;;;;;;;12.75;8.82;;;3.70;99.90;;;;;;5014945;28;20194;-76
2022/01/18 04:04:43;;;;;;;14.00;8.63;;;3.70;99.90;;;;;;5015471;28;20225;-78
2022/01/18 04:07:11;;;;;;;17.35;9.40;;;3.80;99.90;;;;;;5014720;28;20203;-77
2022/01/18 04:09:38;;;;;;;12.77;9.38;;;3.80;99.90;;;;;;5014946;28;20202;-78
2022/01/18 04:12:05;;;;;;;10.77;7.82;;;3.70;99.90;;;;;;5014722;28;20241;-77
2022/01/18 04:14:32;;;;;;;13.77;8.43;;;3.70;99.90;;;;;;5014036;28;20579;-77
2022/01/18 04:17:06;;;;;;;12.07;9.20;;;3.70;99.90;;;;;;5014635;28;20574;-76
2022/01/18 04:27:52;;;;;;;15.23;8.98;;;3.70;99.90;;;;;;5014693;28;20693;-75
2022/01/18 04:30:20;;;;;;;11.90;8.40;;;3.70;99.90;;;;;;5014466;28;20206;-75
2022/01/18 04:32:47;;;;;;;11.82;8.23;;;3.70;99.90;;;;;;5013986;28;20222;-77
2022/01/18 04:35:15;;;;;;;12.52;9.38;;;3.70;99.90;;;;;;5014423;28;20227;-76
2022/01/18 04:37:42;;;;;;;12.32;8.13;;;3.70;99.90;;;;;;5014202;28;20559;-75
2022/01/18 04:40:14;;;;;;;12.02;8.68;;;3.70;99.90;;;;;;5014460;28;20666;-75
2022/01/18 04:42:59;;;;;;;12.48;8.25;;;3.70;99.90;;;;;;5013660;28;20225;-77
2022/01/18 04:48:30;;;;;;;11.18;8.38;;;3.70;99.90;;;;;;4989730;28;20349;-74
2022/01/18 04:51:00;;;;;;;14.27;9.82;;;3.70;99.90;;;;;;5013765;28;20198;-75
2022/01/18 04:53:30;;;;;;;12.45;9.40;;;3.80;99.90;;;;;;5013233;28;20229;-75
2022/01/18 04:55:59;;;;;;;13.15;8.93;;;3.80;99.90;;;;;;5013616;28;20234;-75
2022/01/18 04:58:26;;;;;;;14.20;10.45;;;3.80;99.90;;;;;;5012704;28;20206;-75
2022/01/18 05:00:55;;;;;;;14.45;9.60;;;3.80;99.90;;;;;;5013533;28;20207;-74
2022/01/18 05:03:22;;;;;;;15.60;10.43;;;3.80;99.90;;;;;;5013186;28;20202;-74
2022/01/18 05:05:52;;;;;;;19.67;12.25;;;3.80;99.90;;;;;;5013645;28;20226;-74
2022/01/18 05:08:20;;;;;;;15.27;10.82;;;3.80;99.90;;;;;;5013361;28;20666;-75
2022/01/18 05:10:52;;;;;;;21.90;12.63;;;3.90;99.90;;;;;;5013722;28;20213;-75
2022/01/18 05:13:36;;;;;;;19.05;11.85;;;3.90;99.90;;;;;;5012908;28;20230;-75
2022/01/18 05:16:20;;;;;;;20.90;12.85;;;3.90;99.90;;;;;;5014073;28;20199;-75
2022/01/18 05:19:10;;;;;;;19.65;12.77;;;4.00;99.90;;;;;;5014966;28;20284;-75
2022/01/18 05:24:20;;;;;;;18.05;12.13;;;3.90;99.90;;;;;;5031766;28;20214;-74
2022/01/18 05:26:47;;;;;;;21.45;13.00;;;3.90;99.90;;;;;;5031874;28;20677;-74
2022/01/18 05:29:14;;;;;;;17.83;12.07;;;4.00;99.90;;;;;;5032084;28;20202;-76
2022/01/18 05:31:41;;;;;;;16.52;11.60;;;3.90;99.90;;;;;;5031724;28;20205;-76
2022/01/18 05:34:08;;;;;;;18.35;12.35;;;4.00;99.90;;;;;;5031521;28;20236;-76
2022/01/18 05:36:34;;;;;;;23.95;12.80;;;4.00;99.90;;;;;;5031745;28;20320;-76
2022/01/18 05:39:18;;;;;;;22.10;13.45;;;4.00;99.90;;;;;;5032792;28;20197;-76
2022/01/18 05:41:46;;;;;;;22.35;12.00;;;4.00;99.90;;;;;;5032811;28;20210;-75
2022/01/18 05:44:13;;;;;;;21.55;14.00;;;4.00;99.90;;;;;;5031622;28;20214;-76
2022/01/18 05:46:40;;;;;;;18.38;11.57;;;4.00;99.90;;;;;;5029283;28;20198;-76
2022/01/18 05:49:07;;;;;;;21.40;13.07;;;4.00;99.90;;;;;;5021667;28;20602;-77
2022/01/18 05:51:36;;;;;;;20.33;11.90;;;4.00;99.90;;;;;;5020845;28;20674;-76
2022/01/18 05:54:04;;;;;;;18.95;12.10;;;3.90;99.90;;;;;;5019888;28;20228;-77
2022/01/18 05:56:31;;;;;;;20.02;11.52;;;4.00;99.90;;;;;;5020177;28;20190;-77
2022/01/18 05:59:02;;;;;;;18.70;12.60;;;4.00;99.90;;;;;;5021069;28;20191;-77
2022/01/18 06:01:33;;;;;;;18.67;13.02;;;3.90;99.90;;;;;;5013813;28;20576;-78
2022/01/18 06:04:14;;;;;;;19.10;12.23;;;3.90;99.90;;;;;;5011769;28;20723;-77
2022/01/18 06:06:53;;;;;;;20.00;13.23;;;3.90;99.90;;;;;;5011739;28;20217;-76
2022/01/18 06:09:21;;;;;;;19.85;12.45;;;3.90;99.90;;;;;;5011847;28;20213;-77
2022/01/18 06:11:48;;;;;;;20.88;12.45;;;3.90;99.90;;;;;;5012071;28;20203;-76
2022/01/18 06:14:16;;;;;;;20.48;13.45;;;3.90;99.90;;;;;;5010309;28;20218;-77
2022/01/18 06:16:43;;;;;;;17.50;11.85;;;3.90;99.90;;;;;;5011649;28;20202;-77
2022/01/18 06:19:11;;;;;;;24.55;13.93;;;3.90;99.90;;;;;;5011046;28;20198;-78
2022/01/18 06:21:37;;;;;;;20.00;12.38;;;3.90;99.90;;;;;;5012052;28;20199;-77
2022/01/18 06:24:07;;;;;;;20.85;13.40;;;3.90;99.90;;;;;;5022092;28;20218;-76
2022/01/18 06:26:34;;;;;;;17.40;12.25;;;3.80;99.90;;;;;;5031328;28;20213;-77
2022/01/18 06:29:02;;;;;;;20.27;12.40;;;3.80;99.90;;;;;;5030666;28;20759;-76
2022/01/18 06:31:30;;;;;;;19.83;12.77;;;3.80;99.90;;;;;;5031056;28;20304;-75
2022/01/18 06:33:57;;;;;;;18.25;12.05;;;3.80;99.90;;;;;;5032063;28;20229;-75
2022/01/18 06:36:24;;;;;;;19.08;12.20;;;3.80;99.90;;;;;;5031097;28;20213;-77
2022/01/18 06:38:51;;;;;;;19.90;12.98;;;3.80;99.90;;;;;;5031223;28;20684;-76
2022/01/18 06:41:17;;;;;;;26.77;13.50;;;3.80;99.90;;;;;;5033078;28;20209;-77
2022/01/18 06:43:44;;;;;;;18.17;12.93;;;3.80;99.90;;;;;;5032386;28;20205;-78
2022/01/18 06:46:11;;;;;;;21.02;12.77;;;3.70;99.90;;;;;;5034542;28;20669;-77
2022/01/18 06:48:39;;;;;;;21.35;12.55;;;3.70;99.90;;;;;;5031718;28;20198;-76
2022/01/18 06:51:06;;;;;;;17.60;12.00;;;3.70;99.90;;;;;;5033621;28;20202;-74
2022/01/18 06:53:35;;;;;;;22.58;12.85;;;3.70;99.90;;;;;;5030126;28;20225;-71
2022/01/18 06:56:02;;;;;;;21.00;12.50;;;3.70;99.90;;;;;;5031740;28;20205;-75
2022/01/18 06:58:30;;;;;;;20.45;13.20;;;3.70;99.90;;;;;;5032698;28;20809;-73
2022/01/18 07:00:57;;;;;;;21.70;13.40;;;3.70;99.90;;;;;;5030069;28;20646;-74
2022/01/18 07:03:23;;;;;;;20.88;14.40;;;3.70;99.90;;;;;;5021043;28;20209;-75
2022/01/18 07:05:54;;;;;;;20.23;12.30;;;3.70;99.90;;;;;;5014371;28;20222;-74
2022/01/18 07:08:21;;;;;;;19.00;13.30;;;3.70;99.90;;;;;;5014335;28;20203;-77
2022/01/18 07:10:47;;;;;;;20.95;13.43;;;3.70;99.90;;;;;;5013412;28;20209;-77
2022/01/18 07:13:14;;;;;;;15.30;12.35;;;3.60;99.90;;;;;;5016056;28;20222;-74
2022/01/18 07:15:41;;;;;;;20.67;12.85;;;3.60;99.90;;;;;;5023265;28;20227;-68
2022/01/18 07:18:10;;;;;;;21.50;12.80;;;3.70;99.90;;;;;;5027965;28;20205;-72
2022/01/18 07:20:37;;;;;;;19.58;13.00;;;3.70;99.90;;;;;;5026002;28;20206;-72
2022/01/18 07:23:07;;;;;;;20.00;13.52;;;3.70;99.90;;;;;;5011588;28;20198;-71
2022/01/18 07:25:36;;;;;;;23.13;13.65;;;3.80;99.90;;;;;;5011272;28;20277;-72
2022/01/18 07:28:03;;;;;;;23.95;13.48;;;3.80;99.90;;;;;;5011187;28;20215;-72
2022/01/18 07:30:29;;;;;;;21.60;13.85;;;3.80;99.90;;;;;;5010442;28;20210;-71
2022/01/18 07:32:58;;;;;;;18.33;12.68;;;3.80;99.90;;;;;;5009410;28;20222;-72
2022/01/18 07:35:26;;;;;;;17.10;13.48;;;3.90;99.90;;;;;;5028837;28;20615;-73
2022/01/18 07:37:52;;;;;;;24.33;13.73;;;3.90;99.90;;;;;;5028452;28;20256;-73
2022/01/18 07:40:20;;;;;;;21.98;13.35;;;3.90;99.90;;;;;;5029655;28;20206;-72
2022/01/18 07:42:47;;;;;;;21.95;14.23;;;4.00;99.90;;;;;;5029819;28;20202;-72
2022/01/18 07:45:14;;;;;;;15.88;11.90;;;4.00;99.90;;;;;;5030134;28;20666;-72
2022/01/18 07:47:41;;;;;;;17.95;12.00;;;4.00;99.90;;;;;;5030360;28;20209;-73
2022/01/18 07:50:08;;;;;;;23.63;13.02;;;4.00;99.90;;;;;;5030621;28;20256;-70
2022/01/18 07:52:36;;;;;;;18.88;11.90;;;4.10;99.90;;;;;;5029816;28;20209;-70
2022/01/18 07:55:04;;;;;;;19.10;11.73;;;4.20;99.90;;;;;;5029892;28;20719;-72
2022/01/18 07:57:32;;;;;;;19.38;12.20;;;4.30;99.90;;;;;;5030740;28;20201;-73
2022/01/18 07:59:59;;;;;;;19.35;12.27;;;4.40;99.90;;;;;;5030210;28;20210;-73
2022/01/18 08:02:26;;;;;;;23.02;13.80;;;4.50;99.90;;;;;;5029956;28;20198;-72
2022/01/18 08:04:53;;;;;;;18.00;11.82;;;4.70;99.90;;;;;;5030750;28;20217;-72
2022/01/18 08:07:19;;;;;;;20.05;12.20;;;4.90;99.90;;;;;;5033431;28;20198;-72
2022/01/18 08:09:46;;;;;;;17.42;13.10;;;5.00;99.90;;;;;;5033149;28;20201;-73
2022/01/18 08:12:13;;;;;;;16.70;11.90;;;5.20;99.90;;;;;;5031952;28;20205;-73
2022/01/18 08:14:45;;;;;;;17.85;12.85;;;5.60;99.90;;;;;;5032148;28;20225;-73
2022/01/18 08:17:12;;;;;;;19.55;12.55;;;6.00;99.90;;;;;;5030818;28;20331;-72
2022/01/18 08:19:39;;;;;;;19.55;12.60;;;6.40;99.90;;;;;;5030676;28;20209;-72
2022/01/18 08:22:06;;;;;;;14.90;10.85;;;6.70;99.90;;;;;;5029899;28;20249;-72
2022/01/18 08:24:33;;;;;;;16.88;10.63;;;7.10;99.90;;;;;;5030128;28;20249;-73
2022/01/18 08:27:00;;;;;;;14.80;10.20;;;7.60;99.90;;;;;;5030277;28;20213;-73
2022/01/18 08:29:26;;;;;;;19.33;11.18;;;8.40;99.90;;;;;;5030388;28;20210;-73
2022/01/18 08:31:54;;;;;;;16.35;10.55;;;9.40;99.90;;;;;;5031404;28;20205;-73
2022/01/18 08:34:21;;;;;;;13.18;9.82;;;10.00;99.90;;;;;;5033000;28;20221;-73
2022/01/18 08:36:50;;;;;;;17.90;11.55;;;10.00;99.90;;;;;;5033685;28;20213;-73
2022/01/18 08:39:16;;;;;;;14.45;10.95;;;9.50;99.90;;;;;;5033772;28;20205;-73
2022/01/18 08:41:43;;;;;;;16.38;10.48;;;9.20;99.90;;;;;;5033619;28;20217;-73
2022/01/18 08:44:10;;;;;;;15.15;11.32;;;8.90;99.90;;;;;;5032970;28;20228;-73
2022/01/18 08:46:37;;;;;;;14.55;11.45;;;8.60;99.90;;;;;;5033093;28;20593;-73
2022/01/18 08:49:07;;;;;;;14.02;9.68;;;8.90;99.90;;;;;;5033265;28;20202;-73
2022/01/18 08:51:34;;;;;;;11.35;8.20;;;9.70;99.90;;;;;;5033316;28;20204;-73
2022/01/18 08:54:02;;;;;;;12.98;9.07;;;10.60;99.90;;;;;;5032385;28;20226;-73
2022/01/18 08:56:29;;;;;;;13.93;8.23;;;11.00;99.90;;;;;;5033205;28;20225;-73
2022/01/18 08:58:57;;;;;;;11.68;8.35;;;10.80;99.90;;;;;;5044775;28;20737;-73
2022/01/18 09:01:24;;;;;;;10.48;8.68;;;10.20;99.90;;;;;;5036454;28;20201;-73
2022/01/18 09:03:51;;;;;;;15.27;9.63;;;9.50;99.90;;;;;;5031723;28;20562;-73
2022/01/18 09:06:22;;;;;;;14.35;10.00;;;9.00;99.90;;;;;;5032638;28;20209;-73
2022/01/18 09:08:55;;;;;;;12.98;9.90;;;8.50;99.90;;;;;;5044007;28;20576;-73
2022/01/18 09:11:23;;;;;;;17.15;11.13;;;8.40;99.90;;;;;;5037544;28;20213;-73
2022/01/18 09:13:50;;;;;;;16.85;10.75;;;8.20;99.90;;;;;;5031462;28;20230;-73
2022/01/18 09:16:17;;;;;;;11.68;9.75;;;8.20;99.90;;;;;;5038141;28;20232;-73
2022/01/18 09:18:44;;;;;;;16.92;9.82;;;8.20;99.90;;;;;;5051088;28;20205;-73
2022/01/18 09:21:11;;;;;;;10.73;9.15;;;8.40;99.90;;;;;;5051737;28;20918;-72
2022/01/18 09:23:39;;;;;;;15.90;9.88;;;8.60;99.90;;;;;;5042065;28;20285;-73
2022/01/18 09:26:06;;;;;;;12.90;10.05;;;8.90;99.90;;;;;;5042448;28;20205;-73
2022/01/18 09:28:34;;;;;;;13.15;9.40;;;9.30;99.90;;;;;;5022622;28;20210;-70
2022/01/18 09:31:02;;;;;;;16.67;9.85;;;9.90;99.90;;;;;;5022247;28;20584;-71
2022/01/18 09:33:29;;;;;;;15.38;9.13;;;10.40;99.90;;;;;;5029979;28;20210;-70
2022/01/18 09:35:57;;;;;;;13.55;9.18;;;10.60;99.90;;;;;;5030021;28;20230;-71
2022/01/18 09:38:24;;;;;;;15.38;9.93;;;10.60;99.90;;;;;;5030484;28;20565;-71
2022/01/18 09:40:52;;;;;;;13.25;10.00;;;10.10;99.90;;;;;;5028636;28;20210;-70
2022/01/18 09:43:21;;;;;;;11.98;8.95;;;10.00;99.90;;;;;;5032171;28;20234;-73
2022/01/18 09:45:47;;;;;;;11.05;8.60;;;9.80;99.90;;;;;;5046730;28;20225;-73
2022/01/18 09:48:18;;;;;;;11.18;8.25;;;9.60;99.90;;;;;;5034352;28;20231;-73
2022/01/18 09:50:46;;;;;;;13.88;9.25;;;9.20;99.90;;;;;;5041065;28;20294;-73
2022/01/18 09:53:13;;;;;;;13.07;9.55;;;8.70;99.90;;;;;;5048354;28;20213;-73
2022/01/18 09:55:42;;;;;;;9.68;6.85;;;8.20;99.90;;;;;;5046382;28;20229;-72
2022/01/18 09:58:11;;;;;;;11.45;7.13;;;8.50;99.90;;;;;;5046740;28;20238;-72
2022/01/18 10:00:42;;;;;;;14.43;8.10;;;9.00;99.90;;;;;;5030736;28;20255;-72
2022/01/18 10:03:24;;;;;;;12.27;8.48;;;8.90;99.90;;;;;;5030361;28;20202;-72
2022/01/18 10:05:51;;;;;;;14.27;8.45;;;9.20;99.90;;;;;;5046504;28;20244;-72
2022/01/18 10:08:19;;;;;;;8.13;6.68;;;11.00;99.90;;;;;;5017833;28;20201;-72
2022/01/18 10:10:47;;;;;;;11.32;7.18;;;13.30;99.90;;;;;;5043216;28;20209;-72
2022/01/18 10:13:21;;;;;;;8.25;6.50;;;13.40;99.90;;;;;;5040976;28;20204;-72
2022/01/18 10:16:05;;;;;;;9.18;6.75;;;12.00;99.90;;;;;;5050157;28;20229;-73
2022/01/18 10:18:35;;;;;;;8.27;6.32;;;10.30;99.90;;;;;;5015090;28;20198;-71
2022/01/18 10:21:02;;;;;;;12.07;7.05;;;9.40;99.90;;;;;;5039484;28;20201;-71
2022/01/18 10:23:29;;;;;;;11.65;7.47;;;8.70;99.90;;;;;;5044153;28;20198;-71
2022/01/18 10:25:55;;;;;;;11.43;8.20;;;8.40;99.90;;;;;;5034773;28;20228;-72
2022/01/18 10:28:32;;;;;;;10.63;7.65;;;9.40;99.90;;;;;;5040552;28;20212;-74
2022/01/18 10:31:03;;;;;;;11.15;7.45;;;10.90;99.90;;;;;;5045960;28;20647;-73
2022/01/18 10:33:37;;;;;;;11.93;8.13;;;13.50;99.90;;;;;;5047385;28;20224;-73
2022/01/18 10:36:11;;;;;;;10.02;8.20;;;16.20;99.90;;;;;;5053259;28;20283;-75
2022/01/18 10:38:38;;;;;;;12.03;7.60;;;18.30;97.40;;;;;;5030365;28;20240;-71
2022/01/18 10:41:24;;;;;;;9.90;8.27;;;18.50;95.40;;;;;;5029097;28;20578;-71
2022/01/18 10:44:08;;;;;;;10.57;7.80;;;18.40;95.20;;;;;;5043558;28;20455;-73
2022/01/18 10:46:37;;;;;;;11.17;7.73;;;18.70;95.10;;;;;;5032449;28;20838;-73
2022/01/18 10:49:05;;;;;;;11.33;8.40;;;19.00;93.10;;;;;;5041616;28;20827;-72
2022/01/18 10:51:34;;;;;;;9.37;8.10;;;18.30;93.70;;;;;;5029516;28;20456;-72
2022/01/18 10:54:04;;;;;;;9.03;8.13;;;18.50;93.80;;;;;;5029282;28;20515;-72
2022/01/18 10:56:39;;;;;;;9.77;8.00;;;19.30;93.30;;;;;;5031651;28;20460;-73
2022/01/18 10:59:08;;;;;;;7.83;7.03;;;19.70;92.30;;;;;;5049498;28;20461;-71
2022/01/18 11:01:35;;;;;;;9.20;6.87;;;20.10;92.40;;;;;;5038877;28;20467;-73
2022/01/18 11:04:11;;;;;;;9.03;7.80;;;21.00;91.60;;;;;;5028280;28;20480;-74
2022/01/18 11:06:38;;;;;;;10.23;8.10;;;21.50;90.60;;;;;;5046006;28;20467;-73
2022/01/18 11:09:09;;;;;;;8.67;7.83;;;21.70;91.00;;;;;;5029593;28;20463;-73
2022/01/18 11:11:42;;;;;;;10.00;7.97;;;20.40;90.40;;;;;;5040222;28;20455;-73
2022/01/18 11:14:11;;;;;;;9.67;8.40;;;19.10;91.70;;;;;;5033837;28;20488;-75
2022/01/18 11:16:43;;;;;;;8.30;7.03;;;17.40;92.90;;;;;;5031457;28;20465;-72
2022/01/18 11:19:18;;;;;;;8.10;6.67;;;15.60;93.80;;;;;;5036583;28;21344;-71
2022/01/18 11:21:46;;;;;;;10.00;6.63;;;14.00;95.20;;;;;;5032462;28;20917;-70
2022/01/18 11:24:15;;;;;;;10.90;7.40;;;12.40;96.60;;;;;;5032971;28;20484;-70
2022/01/18 11:26:44;;;;;;;13.93;6.90;;;11.20;98.30;;;;;;5045523;28;20491;-70
2022/01/18 11:29:15;;;;;;;8.95;5.75;;;10.60;99.70;;;;;;5028793;28;21003;-71
2022/01/18 11:31:45;;;;;;;9.05;6.78;;;10.00;99.90;;;;;;5028898;28;20553;-71
2022/01/18 11:34:14;;;;;;;6.82;5.30;;;9.80;99.90;;;;;;5042580;28;20220;-71
2022/01/18 11:36:45;;;;;;;7.43;5.15;;;9.60;99.90;;;;;;5048531;28;20219;-72
2022/01/18 11:39:13;;;;;;;7.95;6.13;;;10.00;99.90;;;;;;5043172;28;20202;-70
2022/01/18 11:41:40;;;;;;;9.15;5.15;;;10.10;99.90;;;;;;5038149;28;20282;-72
2022/01/18 11:44:16;;;;;;;6.63;5.10;;;9.40;99.90;;;;;;5034755;28;20740;-74
2022/01/18 11:46:47;;;;;;;8.98;5.13;;;8.70;99.90;;;;;;5045492;28;20208;-74
2022/01/18 11:49:21;;;;;;;7.03;5.35;;;8.70;99.90;;;;;;5028314;28;20574;-72
2022/01/18 11:51:52;;;;;;;6.82;4.68;;;10.10;99.90;;;;;;5029801;28;20201;-72
2022/01/18 11:54:28;;;;;;;10.90;6.18;;;11.90;98.80;;;;;;5029187;28;20229;-73
2022/01/18 11:56:55;;;;;;;7.75;4.70;;;13.10;97.00;;;;;;5025441;28;20197;-73
2022/01/18 11:59:26;;;;;;;6.45;5.50;;;13.70;96.70;;;;;;5028933;28;20681;-73
2022/01/18 12:01:54;;;;;;;8.38;4.88;;;13.80;96.60;;;;;;5028277;28;20209;-73
2022/01/18 12:05:01;;;;;;;9.05;5.45;;;13.70;96.70;;;;;;5041663;28;20243;-73
2022/01/18 12:07:48;;;;;;;7.78;5.50;;;12.60;96.60;;;;;;5043333;28;20258;-72
2022/01/18 12:10:43;;;;;;;6.43;4.60;;;11.10;97.90;;;;;;5040290;28;20205;-72
2022/01/18 12:13:12;;;;;;;5.10;4.20;;;10.10;98.70;;;;;;5062134;22;20422;-91
2022/01/18 12:15:52;;;;;;;7.43;4.90;;;9.40;99.90;;;;;;5045921;28;20229;-94
2022/01/18 12:18:20;;;;;;;10.38;5.15;;;8.80;99.90;;;;;;5060892;28;20205;-93
2022/01/18 12:20:49;;;;;;;7.80;5.22;;;8.30;99.90;;;;;;5054212;28;20205;-92
2022/01/18 12:23:17;;;;;;;8.13;6.68;;;8.10;99.90;;;;;;5058194;28;20251;-93
2022/01/18 12:25:57;;;;;;;9.60;6.20;;;7.80;99.90;;;;;;5059212;28;20630;-92
2022/01/18 12:28:49;;;;;;;9.15;6.38;;;7.60;99.90;;;;;;5047144;28;20619;-92
2022/01/18 12:34:41;;;;;;;7.60;5.22;;;7.20;99.90;;;;;;5054037;28;20210;-91
2022/01/18 12:37:33;;;;;;;6.53;5.55;;;7.10;99.90;;;;;;5076268;28;20193;-91
2022/01/18 12:40:11;;;;;;;9.27;5.13;;;7.00;99.90;;;;;;5067183;28;20245;-91
2022/01/18 12:45:29;;;;;;;5.25;4.60;;;6.90;99.90;;;;;;5079641;28;20200;-91
2022/01/18 12:48:14;;;;;;;8.25;5.72;;;6.80;99.90;;;;;;5079242;28;20178;-91
2022/01/18 12:50:52;;;;;;;7.60;4.82;;;6.70;99.90;;;;;;5066608;28;20182;-91
2022/01/18 12:53:22;;;;;;;7.00;4.80;;;6.60;99.90;;;;;;5076531;28;20243;-92
2022/01/18 12:58:55;;;;;;;7.25;4.03;;;6.60;99.90;;;;;;5060189;23;20716;-74
2022/01/18 13:01:27;;;;;;;7.50;4.40;;;6.60;99.90;;;;;;5034766;28;20259;-75
2022/01/18 13:03:56;;;;;;;7.32;4.85;;;6.80;99.90;;;;;;5051985;28;20210;-73
2022/01/18 13:06:26;;;;;;;6.78;4.72;;;7.60;99.90;;;;;;5051818;28;20205;-73
2022/01/18 13:08:54;;;;;;;8.70;4.95;;;8.90;99.90;;;;;;5051411;28;20211;-73
2022/01/18 13:11:22;;;;;;;7.15;4.97;;;10.10;99.90;;;;;;5061031;22;20206;-73
2022/01/18 13:13:56;;;;;;;9.65;4.80;;;11.10;99.90;;;;;;5015423;28;20202;-73
2022/01/18 13:27:33;;;;;;;7.88;5.65;;;10.30;99.90;;;;;;5031057;28;20217;-75
2022/01/18 13:30:15;;;;;;;5.68;4.63;;;9.30;99.90;;;;;;5031474;28;20252;-74
2022/01/18 13:32:42;;;;;;;7.05;4.70;;;8.60;99.90;;;;;;5031153;28;20223;-75
2022/01/18 13:35:09;;;;;;;7.47;4.45;;;8.20;99.90;;;;;;5031555;28;20892;-75
2022/01/18 13:37:38;;;;;;;6.88;4.75;;;7.80;99.90;;;;;;5031309;28;20209;-75
2022/01/18 13:40:07;;;;;;;5.75;4.80;;;7.60;99.90;;;;;;5031031;28;20204;-75
2022/01/18 13:42:37;;;;;;;6.00;4.65;;;7.20;99.90;;;;;;5030998;28;20206;-74
2022/01/18 13:45:09;;;;;;;10.25;7.88;;;7.00;99.90;;;;;;5031458;28;20237;-74
2022/01/18 13:47:42;;;;;;;7.15;5.43;;;6.90;99.90;;;;;;5030813;28;20202;-75
2022/01/18 13:50:23;;;;;;;7.95;5.47;;;6.70;99.90;;;;;;5016909;28;20225;-77
2022/01/18 13:52:59;;;;;;;6.03;4.68;;;6.70;99.90;;;;;;5020394;28;20205;-74
2022/01/18 13:55:27;;;;;;;6.40;4.50;;;6.60;99.90;;;;;;5029169;28;20553;-73
2022/01/18 13:57:57;;;;;;;5.57;4.38;;;6.50;99.90;;;;;;5028010;28;20224;-72
2022/01/18 14:00:24;;;;;;;6.78;3.53;;;6.50;99.90;;;;;;5017777;28;20206;-73
2022/01/18 14:02:51;;;;;;;6.90;3.90;;;6.50;99.90;;;;;;5030281;28;20237;-73
2022/01/18 14:05:21;;;;;;;7.05;3.88;;;6.40;99.90;;;;;;5025275;28;20229;-73
2022/01/18 14:07:48;;;;;;;4.70;3.75;;;6.40;99.90;;;;;;5030641;28;20207;-73